Time;durP1;ratioP1;P1;durP2;ratioP2;P2;SDS_P1;SDS_P2;PMS_P1;PMS_P2;Temp;Humidity;BMP_temperature;BMP_pressure;BME280_temperature;BME280_humidity;BME280_pressure;Samples;Min_cycle;Max_cycle;Signal;HPM_P1;HPM_P2
2024/03/28 00:02:21;;;;;;;5.50;3.10;;;;;;;25.34;25.79;99648.93;106813;1265;68608;-86
2024/03/28 00:04:47;;;;;;;7.20;3.40;;;;;;;25.34;25.71;99651.05;106816;1265;74227;-87
2024/03/28 00:07:12;;;;;;;4.80;3.10;;;;;;;25.35;25.84;99655.31;106667;1265;70088;-86
2024/03/28 00:09:38;;;;;;;6.40;3.10;;;;;;;25.34;25.62;99650.89;106656;1265;70135;-87
2024/03/28 00:12:05;;;;;;;5.50;3.10;;;;;;;25.35;25.85;99647.38;106793;1265;70011;-87
2024/03/28 00:14:32;;;;;;;5.20;3.00;;;;;;;25.34;25.57;99636.14;106733;1272;70099;-85
2024/03/28 00:16:58;;;;;;;6.30;3.00;;;;;;;25.34;25.65;99631.04;106898;1265;69951;-85
2024/03/28 00:19:43;;;;;;;4.90;2.70;;;;;;;25.34;25.81;99625.10;106838;1270;67966;-86
2024/03/28 00:22:09;;;;;;;4.50;2.60;;;;;;;25.33;25.63;99616.08;106968;1264;69932;-86
2024/03/28 00:24:35;;;;;;;5.20;2.70;;;;;;;25.33;25.73;99618.64;106889;1270;70203;-85
2024/03/28 00:27:00;;;;;;;5.50;2.90;;;;;;;25.34;25.65;99611.66;107081;1264;68331;-86
2024/03/28 00:29:26;;;;;;;5.60;2.90;;;;;;;25.34;25.83;99608.55;106930;1266;70137;-85
2024/03/28 00:31:51;;;;;;;5.40;2.80;;;;;;;25.34;25.81;99601.58;107070;1266;70037;-85
2024/03/28 00:34:17;;;;;;;5.60;2.50;;;;;;;25.34;25.44;99597.76;106931;1268;69915;-85
2024/03/28 00:36:42;;;;;;;5.00;2.70;;;;;;;25.34;25.49;99592.36;107100;1265;69953;-86
2024/03/28 00:39:09;;;;;;;4.70;2.60;;;;;;;25.34;25.50;99588.14;107088;1265;69879;-85
2024/03/28 00:41:35;;;;;;;6.60;2.90;;;;;;;25.34;25.50;99591.39;106953;1264;68065;-85
2024/03/28 00:44:01;;;;;;;4.90;2.90;;;;;;;25.34;25.52;99590.52;106921;1266;70014;-86
2024/03/28 00:46:32;;;;;;;5.20;2.70;;;;;;;25.34;25.61;99582.17;107032;1264;70029;-92
2024/03/28 00:48:58;;;;;;;5.20;2.70;;;;;;;25.34;25.53;99577.48;106899;1264;69950;-85
2024/03/28 00:51:23;;;;;;;5.10;2.80;;;;;;;25.34;25.44;99568.13;106986;1265;70294;-86
2024/03/28 00:53:49;;;;;;;5.40;3.00;;;;;;;25.33;25.54;99563.45;107023;1264;70027;-85
2024/03/28 00:56:14;;;;;;;4.80;2.60;;;;;;;25.33;25.38;99552.91;107097;1265;70011;-85
2024/03/28 00:58:40;;;;;;;4.50;2.80;;;;;;;25.33;25.68;99554.86;107200;1265;69943;-85
2024/03/28 01:01:05;;;;;;;5.70;2.80;;;;;;;25.32;25.37;99553.69;106717;1264;69979;-85
2024/03/28 01:03:31;;;;;;;5.20;2.70;;;;;;;25.33;25.31;99556.27;106876;1266;70011;-85
2024/03/28 01:05:59;;;;;;;4.90;2.50;;;;;;;25.32;25.44;99558.38;107006;1264;70005;-85
2024/03/28 01:08:25;;;;;;;7.80;3.00;;;;;;;25.32;25.57;99558.91;107019;1268;69823;-85
2024/03/28 01:10:51;;;;;;;5.80;2.70;;;;;;;25.32;25.49;99555.20;107049;1265;68640;-84
2024/03/28 01:13:30;;;;;;;6.50;2.80;;;;;;;25.32;25.29;99553.13;106776;1265;70009;-91
2024/03/28 01:15:57;;;;;;;5.20;2.80;;;;;;;25.32;25.56;99550.38;106805;1265;69899;-85
2024/03/28 01:18:23;;;;;;;7.50;2.60;;;;;;;25.32;25.54;99546.30;106556;1265;69861;-85
2024/03/28 01:20:48;;;;;;;5.40;2.80;;;;;;;25.32;25.37;99548.45;106851;1264;70045;-85
2024/03/28 01:23:14;;;;;;;5.30;2.60;;;;;;;25.31;25.42;99543.58;107057;1265;68387;-85
2024/03/28 01:25:39;;;;;;;5.30;2.50;;;;;;;25.31;25.42;99546.97;107098;1266;70028;-85
2024/03/28 01:28:05;;;;;;;5.30;2.80;;;;;;;25.31;25.34;99543.80;106978;1265;70007;-85
2024/03/28 01:30:30;;;;;;;4.80;2.50;;;;;;;25.31;25.44;99539.58;107017;1264;68286;-85
2024/03/28 01:32:56;;;;;;;3.90;2.50;;;;;;;25.31;25.34;99534.89;107078;1264;70008;-85
2024/03/28 01:35:21;;;;;;;6.70;3.00;;;;;;;25.31;25.48;99534.29;106887;1265;69897;-85
2024/03/28 01:37:48;;;;;;;5.70;2.70;;;;;;;25.30;25.51;99536.81;106972;1266;69969;-85
2024/03/28 01:40:19;;;;;;;5.50;2.80;;;;;;;25.30;25.43;99536.52;107134;1265;69893;-91
2024/03/28 01:42:46;;;;;;;4.70;2.70;;;;;;;25.30;25.39;99535.34;106941;1265;68771;-85
2024/03/28 01:45:11;;;;;;;5.40;2.60;;;;;;;25.30;25.35;99531.66;107142;1265;70054;-85
2024/03/28 01:47:37;;;;;;;5.70;2.60;;;;;;;25.30;25.23;99526.31;107003;1264;70281;-85
2024/03/28 01:50:03;;;;;;;5.70;2.60;;;;;;;25.30;25.67;99527.45;106910;1270;70449;-85
2024/03/28 01:52:28;;;;;;;5.90;2.70;;;;;;;25.30;25.56;99519.63;107072;1264;70008;-86
2024/03/28 01:54:54;;;;;;;4.60;2.70;;;;;;;25.30;25.44;99512.95;107086;1265;69998;-85
2024/03/28 01:57:19;;;;;;;4.30;2.40;;;;;;;25.30;25.50;99510.13;106895;1269;69951;-85
2024/03/28 01:59:45;;;;;;;6.80;2.70;;;;;;;25.30;25.41;99510.83;107385;1265;70029;-85
2024/03/28 02:02:10;;;;;;;4.20;2.90;;;;;;;25.30;25.49;99504.04;107132;1265;70007;-85
2024/03/28 02:04:36;;;;;;;5.40;2.60;;;;;;;25.30;25.63;99505.32;107111;1265;69953;-85
2024/03/28 02:09:42;;;;;;;6.70;2.90;;;;;;;25.29;25.39;99507.36;107204;1264;69960;-87
2024/03/28 02:12:07;;;;;;;5.20;2.60;;;;;;;25.29;25.47;99510.23;106860;1268;70011;-86
2024/03/28 02:14:33;;;;;;;4.90;2.60;;;;;;;25.28;25.28;99508.45;106819;1264;70013;-86
2024/03/28 02:17:05;;;;;;;7.90;3.00;;;;;;;25.29;25.40;99501.55;106889;1264;69944;-87
2024/03/28 02:19:34;;;;;;;4.80;2.60;;;;;;;25.28;25.48;99499.81;106828;1264;69641;-87
2024/03/28 02:24:40;;;;;;;5.00;2.70;;;;;;;25.27;25.25;99497.03;106931;1264;69988;-85
2024/03/28 02:27:05;;;;;;;6.80;3.00;;;;;;;25.28;25.29;99496.48;106887;1264;69944;-85
2024/03/28 02:29:31;;;;;;;6.00;2.80;;;;;;;25.27;25.56;99490.19;106913;1264;69946;-85
2024/03/28 02:31:56;;;;;;;5.30;2.80;;;;;;;25.27;25.38;99485.20;106839;1264;70017;-85
2024/03/28 02:34:22;;;;;;;6.50;3.10;;;;;;;25.27;25.48;99474.63;106872;1264;69936;-86
2024/03/28 02:36:47;;;;;;;4.90;2.60;;;;;;;25.27;25.34;99468.38;106692;1264;69949;-85
2024/03/28 02:39:13;;;;;;;6.10;3.00;;;;;;;25.26;25.45;99466.02;106831;1264;70022;-86
2024/03/28 02:41:39;;;;;;;4.50;2.70;;;;;;;25.26;25.36;99463.50;106805;1264;69963;-85
2024/03/28 02:44:04;;;;;;;6.00;2.90;;;;;;;25.26;25.47;99470.91;106753;1264;69999;-85
2024/03/28 02:46:30;;;;;;;5.70;2.70;;;;;;;25.26;25.48;99468.45;106920;1263;70005;-86
2024/03/28 02:51:35;;;;;;;7.20;2.60;;;;;;;25.25;25.49;99459.77;107145;1264;69936;-85
2024/03/28 02:54:00;;;;;;;8.80;3.10;;;;;;;25.25;25.52;99462.45;107029;1263;71261;-85
2024/03/28 02:56:26;;;;;;;5.20;2.80;;;;;;;25.25;25.16;99450.11;106957;1267;68408;-85
2024/03/28 02:58:51;;;;;;;7.30;3.10;;;;;;;25.26;25.51;99448.86;107204;1263;69965;-85
2024/03/28 03:01:17;;;;;;;4.70;2.50;;;;;;;25.25;25.39;99450.41;107214;1268;69984;-86
2024/03/28 03:03:42;;;;;;;7.10;2.90;;;;;;;25.25;25.39;99453.23;107119;1264;69907;-86
2024/03/28 03:06:08;;;;;;;4.90;2.70;;;;;;;25.25;25.39;99455.73;107099;1263;69905;-86
2024/03/28 03:08:34;;;;;;;6.70;2.90;;;;;;;25.25;25.67;99452.94;107237;1264;68887;-86
2024/03/28 03:10:59;;;;;;;5.30;2.50;;;;;;;25.25;25.63;99458.17;106819;1269;70086;-86
2024/03/28 03:13:25;;;;;;;4.90;2.80;;;;;;;25.26;25.42;99463.73;107099;1267;69982;-86
2024/03/28 03:16:03;;;;;;;6.70;2.70;;;;;;;25.26;25.45;99467.44;106851;1264;70048;-90
2024/03/28 03:18:29;;;;;;;6.20;2.90;;;;;;;25.25;25.39;99461.42;106962;1267;69889;-86
2024/03/28 03:21:01;;;;;;;5.40;2.60;;;;;;;25.25;25.44;99457.89;107038;1264;70445;-86
2024/03/28 03:23:35;;;;;;;6.40;2.70;;;;;;;25.25;25.49;99457.87;106907;1263;69957;-86
2024/03/28 03:26:11;;;;;;;6.30;2.70;;;;;;;25.25;25.44;99450.52;106692;1264;70031;-86
2024/03/28 03:37:08;;;;;;;5.20;2.70;;;;;;;25.24;25.55;99423.08;106936;1264;70107;-92
2024/03/28 03:39:34;;;;;;;;;;;;;;;25.23;25.46;99434.36;106895;1264;69966;-86
2024/03/28 03:42:00;;;;;;;9.50;3.20;;;;;;;25.21;25.49;99440.66;106983;1268;69895;-86
2024/03/28 03:44:25;;;;;;;8.00;2.70;;;;;;;25.22;25.50;99449.57;107024;1264;69933;-86
2024/03/28 03:46:51;;;;;;;6.80;3.10;;;;;;;25.23;25.61;99450.29;106768;1264;69947;-86
2024/03/28 03:49:16;;;;;;;6.30;3.20;;;;;;;25.22;25.64;99448.40;107003;1267;70190;-86
2024/03/28 03:51:55;;;;;;;14.50;3.10;;;;;;;25.22;25.55;99443.05;106965;1264;70017;-92
2024/03/28 03:54:20;;;;;;;8.40;3.20;;;;;;;25.21;25.61;99443.52;106955;1264;70214;-86
2024/03/28 03:56:46;;;;;;;10.40;3.60;;;;;;;25.23;25.81;99445.20;106946;1267;67692;-86
2024/03/28 03:59:11;;;;;;;8.90;3.00;;;;;;;25.22;25.52;99439.52;106902;1267;70065;-87
2024/03/28 04:01:37;;;;;;;6.20;2.70;;;;;;;25.22;25.40;99433.79;107024;1264;70027;-87
2024/03/28 04:04:03;;;;;;;7.10;3.00;;;;;;;25.21;25.65;99431.38;107183;1264;69968;-87
2024/03/28 04:06:29;;;;;;;6.90;3.00;;;;;;;25.21;25.51;99439.23;106841;1264;74402;-88
2024/03/28 04:08:55;;;;;;;8.80;3.80;;;;;;;25.20;25.73;99437.19;106971;1270;69959;-88
2024/03/28 04:11:20;;;;;;;11.30;4.60;;;;;;;25.20;25.67;99438.88;107255;1267;69908;-88
2024/03/28 04:25:07;;;;;;;13.70;6.00;;;;;;;25.21;25.99;99425.52;107838;1260;553050;-89
2024/03/28 04:44:15;;;;;;;15.00;4.70;;;;;;;24.68;26.82;99446.94;108042;1263;68314;-88
2024/03/28 05:03:46;;;;;;;8.40;3.40;;;;;;;23.58;27.63;99430.34;108030;1262;69994;-87
2024/03/28 05:06:13;;;;;;;7.60;3.50;;;;;;;23.62;27.69;99433.56;107293;1265;69969;-88
2024/03/28 05:08:38;;;;;;;8.80;3.20;;;;;;;23.66;27.77;99428.36;107917;1263;70009;-89
2024/03/28 05:11:04;;;;;;;9.80;3.60;;;;;;;23.70;27.68;99427.29;107578;1268;70481;-87
2024/03/28 05:13:30;;;;;;;8.60;3.50;;;;;;;23.73;27.54;99430.27;108102;1263;70969;-88
2024/03/28 05:15:56;;;;;;;9.90;3.60;;;;;;;23.75;27.46;99434.48;108058;1262;69828;-86
2024/03/28 05:21:06;;;;;;;9.00;3.20;;;;;;;23.80;27.65;99438.34;108008;1266;69966;-89
2024/03/28 05:23:36;;;;;;;9.00;3.30;;;;;;;23.83;27.51;99428.00;108013;1264;74344;-89
2024/03/28 05:26:03;;;;;;;9.90;3.50;;;;;;;23.85;27.48;99427.64;107736;1263;70129;-89
2024/03/28 05:28:29;;;;;;;10.40;3.70;;;;;;;23.87;27.47;99436.59;107739;1264;69948;-88
2024/03/28 05:30:55;;;;;;;9.70;3.20;;;;;;;23.89;27.52;99422.52;107876;1263;70008;-87
2024/03/28 05:33:30;;;;;;;10.60;3.20;;;;;;;23.91;27.46;99413.60;108347;1264;67581;-92
2024/03/28 05:35:56;;;;;;;8.40;3.50;;;;;;;23.92;27.58;99410.59;107965;1263;73790;-88
2024/03/28 05:38:22;;;;;;;16.00;4.10;;;;;;;23.93;27.47;99403.55;108094;1263;69842;-89
2024/03/28 05:40:48;;;;;;;13.80;3.70;;;;;;;23.95;27.43;99402.02;108129;1264;69268;-87
2024/03/28 05:43:16;;;;;;;9.10;3.40;;;;;;;23.97;27.58;99397.45;108622;1262;70017;-89
2024/03/28 05:45:42;;;;;;;10.30;3.50;;;;;;;23.99;27.51;99387.73;108380;1263;68252;-87
2024/03/28 05:50:58;;;;;;;11.60;3.60;;;;;;;24.02;27.62;99402.34;108770;1262;67739;-88
2024/03/28 06:11:06;;;;;;;11.60;3.60;;;;;;;24.14;27.57;99422.25;108810;1263;65826;-88
2024/03/28 06:19:44;;;;;;;;;;;;;;;;;;;;;
2024/03/28 06:31:34;;;;;;;15.70;4.00;;;;;;;24.29;27.69;99450.42;108874;1264;71512;-89
2024/03/28 06:43:06;;;;;;;13.00;4.50;;;;;;;24.35;27.64;99459.30;109295;1266;67810;31
2024/03/28 06:45:54;;;;;;;15.90;4.70;;;;;;;24.35;27.81;99459.70;108310;1260;553976;-91
2024/03/28 06:48:26;;;;;;;15.10;4.20;;;;;;;24.34;27.76;99453.38;108574;1262;67414;-89
2024/03/28 06:51:15;;;;;;;13.10;4.50;;;;;;;24.33;27.85;99454.11;108582;1262;69855;-90
2024/03/28 06:59:33;;;;;;;13.20;4.60;;;;;;;24.30;27.98;99447.93;109002;1260;75181;-89
2024/03/28 07:13:43;;;;;;;14.80;5.10;;;;;;;24.26;28.21;99466.31;109235;1261;72846;-89
2024/03/28 08:17:07;;;;;;;18.90;5.40;;;;;;;24.62;28.71;99644.37;108965;1260;70008;-89
2024/03/28 08:20:15;;;;;;;18.10;5.80;;;;;;;24.65;28.77;99649.64;108670;1263;67459;-90
2024/03/28 08:23:07;;;;;;;22.10;6.00;;;;;;;24.66;28.96;99648.16;108907;1263;68281;-92
2024/03/28 09:03:05;;;;;;;22.60;5.80;;;;;;;24.78;29.15;99656.13;109031;1262;66678;-91
2024/03/28 09:08:19;;;;;;;20.20;5.40;;;;;;;24.79;29.45;99649.05;108797;1264;68302;-91
2024/03/28 09:14:27;;;;;;;17.50;5.20;;;;;;;24.82;29.67;99622.88;108515;1265;73395;-86
2024/03/28 09:16:59;;;;;;;18.60;6.10;;;;;;;24.86;29.53;99628.16;108537;1265;68209;-88
2024/03/28 10:15:57;;;;;;;16.10;5.80;;;;;;;25.04;29.88;99635.45;108735;1263;67903;-90
2024/03/28 10:18:28;;;;;;;22.30;6.70;;;;;;;25.07;30.02;99639.93;108519;1263;69954;-90
2024/03/28 10:23:50;;;;;;;20.00;6.20;;;;;;;25.11;29.95;99652.18;108776;1259;67724;-91
2024/03/28 10:50:47;;;;;;;26.10;5.00;;;;;;;25.12;29.86;99649.73;108422;1263;68239;-87
2024/03/28 10:53:49;;;;;;;17.60;4.90;;;;;;;25.12;29.94;99639.81;107822;1264;67646;-91
2024/03/28 10:56:32;;;;;;;22.10;4.80;;;;;;;25.14;30.12;99642.27;107866;1264;74408;-93
2024/03/28 10:59:01;;;;;;;24.20;4.30;;;;;;;25.16;30.15;99648.61;107689;1264;67859;-84
2024/03/28 11:01:31;;;;;;;29.40;5.40;;;;;;;25.18;30.30;99646.66;107561;1268;70059;-84
2024/03/28 11:03:59;;;;;;;27.40;5.20;;;;;;;25.20;30.11;99653.77;107635;1264;67867;-88
2024/03/28 11:06:25;;;;;;;21.60;5.10;;;;;;;25.21;30.27;99660.96;107966;1264;68383;-89
2024/03/28 11:11:49;;;;;;;25.70;5.30;;;;;;;25.22;30.27;99673.89;107997;1267;69995;-89
2024/03/28 11:14:16;;;;;;;28.50;4.70;;;;;;;25.22;29.96;99678.31;108016;1263;69995;-91
2024/03/28 11:16:43;;;;;;;24.90;4.90;;;;;;;25.22;29.99;99676.05;107962;1263;69947;-88
2024/03/28 11:19:08;;;;;;;29.20;5.50;;;;;;;25.23;30.13;99668.77;107995;1268;70005;-87
2024/03/28 11:21:34;;;;;;;21.20;4.40;;;;;;;25.25;29.82;99668.80;107682;1267;67717;-85
2024/03/28 11:23:59;;;;;;;33.50;5.10;;;;;;;25.26;29.90;99665.79;107866;1263;69976;-87
2024/03/28 11:26:25;;;;;;;32.30;4.40;;;;;;;25.28;29.88;99666.40;108064;1263;70029;-88
2024/03/28 11:36:58;;;;;;;21.40;4.10;;;;;;;25.32;29.40;99664.44;108339;1263;69847;-88
2024/03/28 11:39:30;;;;;;;21.30;3.90;;;;;;;25.34;29.34;99669.39;108008;1263;70010;-92
2024/03/28 11:45:09;;;;;;;21.90;3.70;;;;;;;25.36;29.35;99669.70;108303;1263;74231;-89
2024/03/28 11:47:47;;;;;;;;;;;;;;;;;;;;;
2024/03/28 11:50:30;;;;;;;21.30;4.70;;;;;;;25.38;29.26;99664.99;108357;1262;69945;-91
2024/03/28 11:55:41;;;;;;;26.20;4.00;;;;;;;25.40;29.09;99651.40;107737;1266;68512;-88
2024/03/28 12:01:13;;;;;;;26.70;4.00;;;;;;;25.42;29.13;99644.24;108067;1265;66181;-90
2024/03/28 12:03:39;;;;;;;25.60;4.40;;;;;;;25.43;29.08;99645.45;108097;1262;68141;-89
2024/03/28 12:09:01;;;;;;;23.10;3.90;;;;;;;25.44;29.07;99646.09;107950;1268;69887;-91
2024/03/28 12:11:27;;;;;;;26.30;4.10;;;;;;;25.44;28.78;99642.06;108132;1268;74142;-89
2024/03/28 12:16:46;;;;;;;25.70;5.60;;;;;;;25.47;28.81;99652.64;107528;1263;553423;-91
2024/03/28 12:22:13;;;;;;;28.90;6.40;;;;;;;25.48;28.83;99646.08;108480;1260;70305;-87
2024/03/28 12:24:42;;;;;;;23.60;5.90;;;;;;;25.49;28.67;99645.77;108045;1261;69901;-88
2024/03/28 12:27:13;;;;;;;25.40;6.40;;;;;;;25.50;28.74;99645.90;108071;1263;68151;-90
2024/03/28 12:29:39;;;;;;;24.40;6.00;;;;;;;25.52;28.69;99654.39;107934;1260;69864;-85
2024/03/28 12:32:04;;;;;;;21.10;6.10;;;;;;;25.53;28.62;99657.60;108051;1260;67587;-90
2024/03/28 12:34:34;;;;;;;26.70;6.60;;;;;;;25.55;28.44;99661.98;107973;1261;70076;-91
2024/03/28 12:37:00;;;;;;;25.90;6.10;;;;;;;25.55;28.65;99660.77;108283;1263;74015;-89
2024/03/28 12:39:26;;;;;;;24.40;6.60;;;;;;;25.56;28.51;99663.27;108377;1263;69962;-89
2024/03/28 12:42:04;;;;;;;25.40;6.90;;;;;;;25.58;28.49;99660.71;107874;1263;68570;-89
2024/03/28 12:44:31;;;;;;;22.80;5.90;;;;;;;25.58;28.46;99661.46;108305;1262;69934;-89
2024/03/28 12:46:57;;;;;;;28.80;7.20;;;;;;;25.58;28.50;99661.31;107986;1263;69890;-87
2024/03/28 12:49:22;;;;;;;25.10;6.20;;;;;;;25.58;28.55;99665.46;107934;1262;68005;-89
2024/03/28 12:51:48;;;;;;;18.20;5.60;;;;;;;25.59;28.41;99662.29;107894;1263;69934;-86
2024/03/28 12:54:13;;;;;;;24.70;6.70;;;;;;;25.59;28.46;99663.16;107966;1267;69867;-84
2024/03/28 13:11:12;;;;;;;24.50;8.70;;;;;;;25.65;28.38;99687.73;108708;1262;67507;31
2024/03/28 13:22:40;;;;;;;26.10;8.40;;;;;;;25.69;28.21;99710.75;108360;1262;69438;-89
2024/03/28 13:25:07;;;;;;;19.00;8.10;;;;;;;25.70;28.28;99712.11;108270;1267;70544;-89
2024/03/28 13:27:33;;;;;;;21.40;7.70;;;;;;;25.70;28.18;99709.98;108130;1267;74164;-89
2024/03/28 13:29:58;;;;;;;25.30;7.80;;;;;;;25.72;28.19;99718.54;108036;1262;69945;-87
2024/03/28 13:32:26;;;;;;;27.00;7.70;;;;;;;25.71;28.12;99713.77;107933;1270;70024;-89
2024/03/28 13:37:46;;;;;;;19.90;6.60;;;;;;;25.70;27.95;99710.41;108381;1262;553976;-92
2024/03/28 13:45:53;;;;;;;24.10;5.90;;;;;;;25.71;27.71;99724.58;108380;1262;67939;-90
2024/03/28 13:48:24;;;;;;;16.20;6.40;;;;;;;25.72;27.58;99724.77;108198;1262;69863;-88
2024/03/28 14:08:06;;;;;;;20.20;4.50;;;;;;;25.74;27.11;99708.19;108183;1263;71469;-89
2024/03/28 14:16:50;;;;;;;16.60;4.00;;;;;;;25.77;26.84;99705.14;108414;1263;69939;-91
2024/03/28 14:22:35;;;;;;;14.00;4.10;;;;;;;25.78;27.00;99704.98;107523;1263;73420;-93
2024/03/28 14:25:01;;;;;;;17.50;4.30;;;;;;;25.79;26.70;99704.18;107682;1268;69729;-87
2024/03/28 14:27:30;;;;;;;17.60;4.50;;;;;;;25.80;26.81;99707.55;108178;1263;69936;-89
2024/03/28 14:32:45;;;;;;;12.50;4.40;;;;;;;25.78;26.78;99710.36;108459;1263;69761;-87
2024/03/28 14:35:11;;;;;;;18.10;4.90;;;;;;;25.79;26.69;99713.59;107959;1260;69955;-88
2024/03/28 14:43:05;;;;;;;20.90;4.50;;;;;;;25.79;26.50;99710.71;107937;1264;553816;-86
2024/03/28 14:45:35;;;;;;;20.70;4.70;;;;;;;25.79;26.50;99711.63;108003;1260;69939;-90
2024/03/28 14:48:02;;;;;;;14.80;4.70;;;;;;;25.79;26.32;99712.05;108059;1262;75326;-88
2024/03/28 14:50:28;;;;;;;18.30;3.80;;;;;;;25.79;26.50;99710.76;107723;1262;73143;-87
2024/03/28 14:52:58;;;;;;;12.20;3.90;;;;;;;25.80;26.60;99712.08;108082;1262;68256;-89
2024/03/28 14:55:31;;;;;;;21.00;4.70;;;;;;;25.80;26.19;99720.63;107758;1269;69889;-92
2024/03/28 14:57:57;;;;;;;12.40;4.10;;;;;;;25.79;26.14;99724.20;107774;1262;69836;-89
2024/03/28 15:00:25;;;;;;;14.80;4.20;;;;;;;25.79;26.04;99727.46;108097;1262;69895;-89
2024/03/28 15:02:50;;;;;;;11.60;4.20;;;;;;;25.78;26.18;99733.32;108029;1262;69771;-88
2024/03/28 15:05:16;;;;;;;12.40;3.70;;;;;;;25.78;26.06;99730.36;108114;1263;70002;-89
2024/03/28 15:07:43;;;;;;;16.10;4.10;;;;;;;25.77;25.98;99731.02;108112;1262;67646;-88
2024/03/28 15:13:00;;;;;;;13.20;3.70;;;;;;;25.75;25.94;99738.61;107881;1263;71739;-89
2024/03/28 15:15:26;;;;;;;16.00;4.00;;;;;;;25.75;25.90;99742.39;107885;1263;67963;-85
2024/03/28 15:20:45;;;;;;;13.00;3.50;;;;;;;25.71;25.62;99748.26;108345;1265;69796;-89
2024/03/28 15:23:10;;;;;;;13.50;3.60;;;;;;;25.69;25.69;99752.11;108101;1263;67549;-87
2024/03/28 15:25:36;;;;;;;17.00;3.50;;;;;;;25.67;25.58;99752.38;107947;1263;69996;-87
2024/03/28 15:28:02;;;;;;;16.10;3.80;;;;;;;25.66;25.51;99749.09;107908;1263;70157;-87
2024/03/28 15:30:29;;;;;;;11.50;3.10;;;;;;;25.67;25.66;99747.69;107646;1263;70063;-87
2024/03/28 15:32:54;;;;;;;10.60;3.60;;;;;;;25.66;25.60;99749.39;108012;1262;67888;-88
2024/03/28 15:35:20;;;;;;;16.20;3.30;;;;;;;25.67;25.49;99752.38;107997;1262;69929;-87
2024/03/28 15:37:45;;;;;;;11.40;3.70;;;;;;;25.67;25.31;99754.23;107793;1262;69899;-87
2024/03/28 15:42:51;;;;;;;7.70;2.80;;;;;;;25.66;25.36;99756.45;107686;1264;68239;-88
2024/03/28 15:45:16;;;;;;;10.60;2.80;;;;;;;25.66;25.14;99763.10;107771;1264;70010;-88
2024/03/28 15:50:22;;;;;;;14.00;2.80;;;;;;;25.66;25.07;99764.50;108249;1260;69962;-87
2024/03/28 15:52:48;;;;;;;13.10;2.90;;;;;;;25.65;25.03;99759.89;108178;1260;70423;-87
2024/03/28 15:55:16;;;;;;;10.90;2.90;;;;;;;25.65;24.98;99757.61;108370;1260;68118;-93
2024/03/28 15:57:42;;;;;;;14.40;3.10;;;;;;;25.65;25.04;99752.76;108042;1260;69871;-89
2024/03/28 16:00:08;;;;;;;17.20;3.00;;;;;;;25.64;24.91;99755.99;107858;1263;67957;-86
2024/03/28 16:02:34;;;;;;;18.20;2.60;;;;;;;25.60;24.77;99756.83;107505;1265;70010;-86
2024/03/28 16:04:59;;;;;;;14.30;2.30;;;;;;;25.52;24.89;99750.17;107507;1260;69961;-86
2024/03/28 16:07:25;;;;;;;15.10;6.30;;;;;;;25.44;24.41;99751.23;107584;1260;70004;-87
2024/03/28 16:09:50;;;;;;;23.00;10.00;;;;;;;25.37;24.43;99750.85;107465;1260;69980;-86
2024/03/28 16:12:19;;;;;;;11.60;5.30;;;;;;;25.31;24.50;99756.23;107600;1261;69986;-86
2024/03/28 16:14:44;;;;;;;15.60;4.70;;;;;;;25.24;24.35;99760.27;107616;1260;68941;-87
2024/03/28 16:17:10;;;;;;;9.50;3.00;;;;;;;25.18;24.38;99764.02;107443;1267;70118;-87
2024/03/28 16:19:36;;;;;;;11.00;3.40;;;;;;;25.15;24.25;99768.92;107423;1261;70202;-86
2024/03/28 16:24:43;;;;;;;8.80;2.80;;;;;;;25.13;24.24;99785.14;107667;1263;69991;-87
2024/03/28 16:27:09;;;;;;;9.80;2.80;;;;;;;25.14;24.07;99785.73;107307;1262;69972;-86
2024/03/28 16:29:35;;;;;;;9.90;2.80;;;;;;;25.15;24.21;99789.84;107669;1265;69908;-88
2024/03/28 16:32:01;;;;;;;11.10;3.00;;;;;;;25.18;24.04;99791.33;107920;1263;69876;-88
2024/03/28 16:34:26;;;;;;;9.10;2.80;;;;;;;25.20;24.32;99791.41;107835;1262;69947;-88
2024/03/28 16:42:34;;;;;;;12.10;2.80;;;;;;;25.23;24.28;99799.63;107582;1262;69876;-89
2024/03/28 16:45:01;;;;;;;10.90;2.90;;;;;;;25.25;24.23;99801.02;107746;1262;70063;-88
2024/03/28 16:53:42;;;;;;;15.70;2.90;;;;;;;25.28;24.41;99816.97;108831;1261;69988;-92
2024/03/28 17:13:08;;;;;;;15.20;2.90;;;;;;;25.39;24.53;99857.63;108196;1260;69994;-89
2024/03/28 17:15:34;;;;;;;9.70;2.60;;;;;;;25.41;24.54;99861.90;106963;1267;67798;-89
2024/03/28 17:26:29;;;;;;;16.80;3.40;;;;;;;25.42;24.64;99882.05;107214;1265;69892;-88
2024/03/28 17:28:56;;;;;;;9.80;3.60;;;;;;;25.43;24.45;99885.50;106866;1271;70420;-88
2024/03/28 18:32:53;;;;;;;15.10;6.30;;;;;;;25.49;24.64;99918.19;109155;1261;67798;-92
2024/03/28 19:17:13;;;;;;;13.00;6.30;;;;;;;25.58;24.67;99930.05;109070;1260;67401;31
2024/03/28 19:27:51;;;;;;;10.20;5.70;;;;;;;25.59;24.72;99943.92;108870;1260;71128;31
2024/03/28 19:49:43;;;;;;;15.80;6.40;;;;;;;25.64;25.01;99969.86;109512;1260;67382;-89
2024/03/28 21:04:17;;;;;;;7.50;4.70;;;;;;;25.67;25.47;99992.44;108396;1263;69929;31
2024/03/28 22:34:57;;;;;;;9.00;4.20;;;;;;;25.74;25.72;100029.21;109210;1262;67158;-89
